sensor_id;sensor_type;location;lat;lon;timestamp;pressure;altitude;pressure_sealevel;temperature;humidity
25238;BME280;13185;50.872;5.306;2023-02-13T00:01:56;103337.41;;;1.72;100.00
25238;BME280;13185;50.872;5.306;2023-02-13T00:04:21;103330.34;;;1.70;100.00
25238;BME280;13185;50.872;5.306;2023-02-13T00:06:47;103331.22;;;1.67;100.00
25238;BME280;13185;50.872;5.306;2023-02-13T00:09:13;103331.16;;;1.64;100.00
25238;BME280;13185;50.872;5.306;2023-02-13T00:11:38;103327.59;;;1.61;100.00
25238;BME280;13185;50.872;5.306;2023-02-13T00:14:04;103326.69;;;1.59;100.00
25238;BME280;13185;50.872;5.306;2023-02-13T00:16:29;103331.97;;;1.59;100.00
25238;BME280;13185;50.872;5.306;2023-02-13T00:18:55;103334.56;;;1.54;100.00
25238;BME280;13185;50.872;5.306;2023-02-13T00:21:20;103333.66;;;1.52;100.00
25238;BME280;13185;50.872;5.306;2023-02-13T00:23:46;103329.22;;;1.48;100.00
25238;BME280;13185;50.872;5.306;2023-02-13T00:26:13;103328.25;;;1.44;100.00
25238;BME280;13185;50.872;5.306;2023-02-13T00:28:43;103337.06;;;1.43;100.00
25238;BME280;13185;50.872;5.306;2023-02-13T00:31:14;103326.47;;;1.42;100.00
25238;BME280;13185;50.872;5.306;2023-02-13T00:33:40;103334.41;;;1.42;100.00
25238;BME280;13185;50.872;5.306;2023-02-13T00:36:12;103322.03;;;1.39;100.00
25238;BME280;13185;50.872;5.306;2023-02-13T00:38:39;103319.38;;;1.38;100.00
25238;BME280;13185;50.872;5.306;2023-02-13T00:41:05;103322.84;;;1.35;100.00
25238;BME280;13185;50.872;5.306;2023-02-13T00:43:31;103321.97;;;1.35;100.00
25238;BME280;13185;50.872;5.306;2023-02-13T00:45:56;103318.44;;;1.33;100.00
25238;BME280;13185;50.872;5.306;2023-02-13T00:48:26;103317.53;;;1.31;100.00
25238;BME280;13185;50.872;5.306;2023-02-13T00:50:52;103321.03;;;1.28;100.00
25238;BME280;13185;50.872;5.306;2023-02-13T00:53:19;103317.47;;;1.26;100.00
25238;BME280;13185;50.872;5.306;2023-02-13T00:55:45;103317.50;;;1.28;100.00
25238;BME280;13185;50.872;5.306;2023-02-13T00:58:11;103326.28;;;1.27;100.00
25238;BME280;13185;50.872;5.306;2023-02-13T01:00:37;103311.25;;;1.24;100.00
25238;BME280;13185;50.872;5.306;2023-02-13T01:03:04;103315.66;;;1.24;100.00
25238;BME280;13185;50.872;5.306;2023-02-13T01:05:29;103308.59;;;1.21;100.00
25238;BME280;13185;50.872;5.306;2023-02-13T01:07:55;103319.13;;;1.18;100.00
25238;BME280;13185;50.872;5.306;2023-02-13T01:10:20;103311.13;;;1.13;100.00
25238;BME280;13185;50.872;5.306;2023-02-13T01:12:47;103309.34;;;1.14;100.00
25238;BME280;13185;50.872;5.306;2023-02-13T01:15:12;103304.94;;;1.11;100.00
25238;BME280;13185;50.872;5.306;2023-02-13T01:17:38;103313.72;;;1.10;100.00
25238;BME280;13185;50.872;5.306;2023-02-13T01:20:05;103319.88;;;1.09;100.00
25238;BME280;13185;50.872;5.306;2023-02-13T01:22:31;103311.06;;;1.07;100.00
25238;BME280;13185;50.872;5.306;2023-02-13T01:24:56;103311.06;;;1.09;100.00
25238;BME280;13185;50.872;5.306;2023-02-13T01:27:22;103312.81;;;1.08;100.00
25238;BME280;13185;50.872;5.306;2023-02-13T01:29:49;103309.28;;;1.05;100.00
25238;BME280;13185;50.872;5.306;2023-02-13T01:32:16;103316.31;;;1.04;100.00
25238;BME280;13185;50.872;5.306;2023-02-13T01:34:41;103305.69;;;1.03;100.00
25238;BME280;13185;50.872;5.306;2023-02-13T01:37:06;103310.06;;;1.01;100.00
25238;BME280;13185;50.872;5.306;2023-02-13T01:39:32;103323.25;;;0.98;100.00
25238;BME280;13185;50.872;5.306;2023-02-13T01:41:58;103323.22;;;0.95;100.00
25238;BME280;13185;50.872;5.306;2023-02-13T01:44:43;103324.91;;;0.93;100.00
25238;BME280;13185;50.872;5.306;2023-02-13T01:47:11;103325.78;;;0.92;100.00
25238;BME280;13185;50.872;5.306;2023-02-13T01:49:39;103329.34;;;0.94;100.00
25238;BME280;13185;50.872;5.306;2023-02-13T01:52:06;103329.38;;;0.95;100.00
25238;BME280;13185;50.872;5.306;2023-02-13T01:54:34;103319.72;;;0.96;100.00
25238;BME280;13185;50.872;5.306;2023-02-13T01:57:09;103326.75;;;0.95;100.00
25238;BME280;13185;50.872;5.306;2023-02-13T02:02:16;103316.19;;;0.97;100.00
25238;BME280;13185;50.872;5.306;2023-02-13T02:04:44;103318.84;;;0.97;100.00
25238;BME280;13185;50.872;5.306;2023-02-13T02:07:19;103320.59;;;0.98;100.00
25238;BME280;13185;50.872;5.306;2023-02-13T02:09:48;103315.31;;;0.98;100.00
25238;BME280;13185;50.872;5.306;2023-02-13T02:12:44;103317.94;;;0.95;100.00
25238;BME280;13185;50.872;5.306;2023-02-13T02:15:12;103320.56;;;0.95;100.00
25238;BME280;13185;50.872;5.306;2023-02-13T02:17:38;103318.78;;;0.94;100.00
25238;BME280;13185;50.872;5.306;2023-02-13T02:20:14;103318.72;;;0.91;100.00
25238;BME280;13185;50.872;5.306;2023-02-13T02:33:52;103323.13;;;0.89;100.00
25238;BME280;13185;50.872;5.306;2023-02-13T02:39:30;103329.25;;;0.86;100.00
25238;BME280;13185;50.872;5.306;2023-02-13T02:47:52;103315.09;;;0.82;100.00
25238;BME280;13185;50.872;5.306;2023-02-13T02:56:27;103311.50;;;0.77;100.00
25238;BME280;13185;50.872;5.306;2023-02-13T02:59:05;103314.13;;;0.76;100.00
25238;BME280;13185;50.872;5.306;2023-02-13T03:01:52;103319.41;;;0.74;100.00
25238;BME280;13185;50.872;5.306;2023-02-13T03:04:41;103315.78;;;0.71;100.00
25238;BME280;13185;50.872;5.306;2023-02-13T03:07:26;103315.78;;;0.69;100.00
25238;BME280;13185;50.872;5.306;2023-02-13T03:10:00;103314.84;;;0.66;100.00
25238;BME280;13185;50.872;5.306;2023-02-13T03:12:53;103312.19;;;0.64;100.00
25238;BME280;13185;50.872;5.306;2023-02-13T03:15:41;103314.75;;;0.60;100.00
25238;BME280;13185;50.872;5.306;2023-02-13T03:18:29;103316.47;;;0.57;100.00
25238;BME280;13185;50.872;5.306;2023-02-13T03:21:18;103315.56;;;0.54;100.00
25238;BME280;13185;50.872;5.306;2023-02-13T03:24:23;103306.78;;;0.56;100.00
25238;BME280;13185;50.872;5.306;2023-02-13T03:27:08;103306.78;;;0.55;100.00
25238;BME280;13185;50.872;5.306;2023-02-13T03:29:42;103307.63;;;0.54;100.00
25238;BME280;13185;50.872;5.306;2023-02-13T03:35:31;103319.00;;;0.51;100.00
25238;BME280;13185;50.872;5.306;2023-02-13T03:41:11;103313.78;;;0.53;100.00
25238;BME280;13185;50.872;5.306;2023-02-13T03:46:26;103316.38;;;0.51;100.00
25238;BME280;13185;50.872;5.306;2023-02-13T03:48:53;103311.09;;;0.51;100.00
25238;BME280;13185;50.872;5.306;2023-02-13T03:51:45;103310.13;;;0.45;100.00
25238;BME280;13185;50.872;5.306;2023-02-13T03:56:46;103301.22;;;0.38;100.00
25238;BME280;13185;50.872;5.306;2023-02-13T03:59:35;103314.44;;;0.40;100.00
25238;BME280;13185;50.872;5.306;2023-02-13T04:02:12;103309.97;;;0.36;100.00
25238;BME280;13185;50.872;5.306;2023-02-13T04:04:42;103315.22;;;0.34;100.00
25238;BME280;13185;50.872;5.306;2023-02-13T04:07:12;103316.97;;;0.32;100.00
25238;BME280;13185;50.872;5.306;2023-02-13T04:10:05;103315.97;;;0.27;100.00
25238;BME280;13185;50.872;5.306;2023-02-13T04:15:17;103306.34;;;0.31;100.00
25238;BME280;13185;50.872;5.306;2023-02-13T04:18:04;103316.09;;;0.33;100.00
25238;BME280;13185;50.872;5.306;2023-02-13T04:20:31;103306.34;;;0.31;100.00
25238;BME280;13185;50.872;5.306;2023-02-13T04:23:03;103309.84;;;0.29;100.00
25238;BME280;13185;50.872;5.306;2023-02-13T04:25:30;103311.59;;;0.29;100.00
25238;BME280;13185;50.872;5.306;2023-02-13T04:27:55;103311.59;;;0.27;100.00
25238;BME280;13185;50.872;5.306;2023-02-13T04:30:21;103312.41;;;0.22;100.00
25238;BME280;13185;50.872;5.306;2023-02-13T04:32:46;103308.78;;;0.18;100.00
25238;BME280;13185;50.872;5.306;2023-02-13T04:35:12;103316.66;;;0.15;100.00
25238;BME280;13185;50.872;5.306;2023-02-13T04:37:39;103313.97;;;0.11;100.00
25238;BME280;13185;50.872;5.306;2023-02-13T04:40:05;103316.47;;;0.05;100.00
25238;BME280;13185;50.872;5.306;2023-02-13T04:42:30;103318.22;;;0.04;100.00
25238;BME280;13185;50.872;5.306;2023-02-13T04:44:56;103322.59;;;0.02;100.00
25238;BME280;13185;50.872;5.306;2023-02-13T04:47:21;103319.97;;;0.02;100.00
25238;BME280;13185;50.872;5.306;2023-02-13T04:49:46;103319.88;;;-0.01;100.00
25238;BME280;13185;50.872;5.306;2023-02-13T04:52:12;103298.75;;;-0.03;100.00
25238;BME280;13185;50.872;5.306;2023-02-13T04:54:39;103310.19;;;-0.02;100.00
25238;BME280;13185;50.872;5.306;2023-02-13T04:57:05;103300.47;;;-0.05;100.00
25238;BME280;13185;50.872;5.306;2023-02-13T04:59:30;103301.34;;;-0.06;100.00
25238;BME280;13185;50.872;5.306;2023-02-13T05:01:57;103305.72;;;-0.06;100.00
25238;BME280;13185;50.872;5.306;2023-02-13T05:04:24;103305.69;;;-0.09;100.00
25238;BME280;13185;50.872;5.306;2023-02-13T05:06:50;103298.56;;;-0.13;100.00
25238;BME280;13185;50.872;5.306;2023-02-13T05:09:16;103303.81;;;-0.15;100.00
25238;BME280;13185;50.872;5.306;2023-02-13T05:11:41;103304.63;;;-0.19;100.00
25238;BME280;13185;50.872;5.306;2023-02-13T05:14:08;103301.03;;;-0.22;100.00
25238;BME280;13185;50.872;5.306;2023-02-13T05:16:33;103310.63;;;-0.26;100.00
25238;BME280;13185;50.872;5.306;2023-02-13T05:18:59;103316.72;;;-0.30;100.00
25238;BME280;13185;50.872;5.306;2023-02-13T05:21:24;103320.16;;;-0.33;100.00
25238;BME280;13185;50.872;5.306;2023-02-13T05:24:08;103308.69;;;-0.36;100.00
25238;BME280;13185;50.872;5.306;2023-02-13T05:26:34;103314.84;;;-0.36;100.00
25238;BME280;13185;50.872;5.306;2023-02-13T05:28:59;103313.03;;;-0.38;100.00
25238;BME280;13185;50.872;5.306;2023-02-13T05:31:44;103312.94;;;-0.43;100.00
25238;BME280;13185;50.872;5.306;2023-02-13T05:34:09;103323.44;;;-0.44;100.00
25238;BME280;13185;50.872;5.306;2023-02-13T05:36:35;103322.53;;;-0.46;100.00
25238;BME280;13185;50.872;5.306;2023-02-13T05:39:00;103315.50;;;-0.47;100.00
25238;BME280;13185;50.872;5.306;2023-02-13T05:41:26;103316.31;;;-0.50;100.00
25238;BME280;13185;50.872;5.306;2023-02-13T05:43:51;103326.84;;;-0.51;100.00
25238;BME280;13185;50.872;5.306;2023-02-13T05:46:17;103318.06;;;-0.52;100.00
25238;BME280;13185;50.872;5.306;2023-02-13T05:48:42;103318.06;;;-0.52;100.00
25238;BME280;13185;50.872;5.306;2023-02-13T05:51:08;103319.75;;;-0.52;100.00
25238;BME280;13185;50.872;5.306;2023-02-13T05:53:34;103323.25;;;-0.53;100.00
25238;BME280;13185;50.872;5.306;2023-02-13T05:56:00;103315.31;;;-0.56;100.00
25238;BME280;13185;50.872;5.306;2023-02-13T05:58:26;103317.03;;;-0.59;100.00
25238;BME280;13185;50.872;5.306;2023-02-13T06:00:57;103316.13;;;-0.61;100.00
25238;BME280;13185;50.872;5.306;2023-02-13T06:03:24;103311.66;;;-0.63;100.00
25238;BME280;13185;50.872;5.306;2023-02-13T06:05:51;103315.13;;;-0.66;100.00
25238;BME280;13185;50.872;5.306;2023-02-13T06:08:17;103308.94;;;-0.66;100.00
25238;BME280;13185;50.872;5.306;2023-02-13T06:10:42;103308.00;;;-0.70;100.00
25238;BME280;13185;50.872;5.306;2023-02-13T06:13:08;103314.13;;;-0.72;100.00
25238;BME280;13185;50.872;5.306;2023-02-13T06:15:33;103311.41;;;-0.74;100.00
25238;BME280;13185;50.872;5.306;2023-02-13T06:17:59;103309.66;;;-0.75;100.00
25238;BME280;13185;50.872;5.306;2023-02-13T06:20:25;103321.03;;;-0.76;100.00
25238;BME280;13185;50.872;5.306;2023-02-13T06:22:51;103317.50;;;-0.78;100.00
25238;BME280;13185;50.872;5.306;2023-02-13T06:25:18;103314.84;;;-0.79;100.00
25238;BME280;13185;50.872;5.306;2023-02-13T06:27:43;103318.34;;;-0.80;100.00
25238;BME280;13185;50.872;5.306;2023-02-13T06:30:09;103317.41;;;-0.82;100.00
25238;BME280;13185;50.872;5.306;2023-02-13T06:32:35;103317.34;;;-0.84;100.00
25238;BME280;13185;50.872;5.306;2023-02-13T06:35:00;103319.03;;;-0.88;100.00
25238;BME280;13185;50.872;5.306;2023-02-13T06:37:26;103319.91;;;-0.89;100.00
25238;BME280;13185;50.872;5.306;2023-02-13T06:39:51;103328.66;;;-0.90;100.00
25238;BME280;13185;50.872;5.306;2023-02-13T06:42:17;103324.19;;;-0.94;100.00
25238;BME280;13185;50.872;5.306;2023-02-13T06:44:43;103327.66;;;-0.95;100.00
25238;BME280;13185;50.872;5.306;2023-02-13T06:47:09;103327.59;;;-0.98;100.00
25238;BME280;13185;50.872;5.306;2023-02-13T06:49:34;103329.31;;;-1.00;100.00
25238;BME280;13185;50.872;5.306;2023-02-13T06:52:00;103330.19;;;-1.01;100.00
25238;BME280;13185;50.872;5.306;2023-02-13T06:54:25;103327.50;;;-1.02;100.00
25238;BME280;13185;50.872;5.306;2023-02-13T06:56:51;103323.09;;;-1.03;100.00
25238;BME280;13185;50.872;5.306;2023-02-13T06:59:16;103322.22;;;-1.04;100.00
25238;BME280;13185;50.872;5.306;2023-02-13T07:01:41;103314.31;;;-1.04;100.00
25238;BME280;13185;50.872;5.306;2023-02-13T07:04:07;103317.84;;;-1.03;100.00
25238;BME280;13185;50.872;5.306;2023-02-13T07:06:32;103320.41;;;-1.05;100.00
25238;BME280;13185;50.872;5.306;2023-02-13T07:09:00;103319.50;;;-1.07;100.00
25238;BME280;13185;50.872;5.306;2023-02-13T07:11:26;103319.50;;;-1.07;100.00
25238;BME280;13185;50.872;5.306;2023-02-13T07:13:51;103320.34;;;-1.08;100.00
25238;BME280;13185;50.872;5.306;2023-02-13T07:16:17;103326.50;;;-1.07;100.00
25238;BME280;13185;50.872;5.306;2023-02-13T07:18:42;103331.81;;;-1.06;100.00
25238;BME280;13185;50.872;5.306;2023-02-13T07:21:08;103335.28;;;-1.07;100.00
25238;BME280;13185;50.872;5.306;2023-02-13T07:23:33;103330.03;;;-1.07;100.00
25238;BME280;13185;50.872;5.306;2023-02-13T07:26:00;103331.81;;;-1.06;100.00
25238;BME280;13185;50.872;5.306;2023-02-13T07:28:26;103324.78;;;-1.05;100.00
25238;BME280;13185;50.872;5.306;2023-02-13T07:30:51;103325.69;;;-1.05;100.00
25238;BME280;13185;50.872;5.306;2023-02-13T07:33:17;103329.16;;;-1.06;100.00
25238;BME280;13185;50.872;5.306;2023-02-13T07:35:46;103327.47;;;-1.04;100.00
25238;BME280;13185;50.872;5.306;2023-02-13T07:38:12;103325.78;;;-1.00;100.00
25238;BME280;13185;50.872;5.306;2023-02-13T07:40:37;103329.38;;;-0.97;100.00
25238;BME280;13185;50.872;5.306;2023-02-13T07:43:03;103330.34;;;-0.93;100.00
25238;BME280;13185;50.872;5.306;2023-02-13T07:45:29;103334.81;;;-0.89;100.00
25238;BME280;13185;50.872;5.306;2023-02-13T07:47:55;103339.25;;;-0.87;100.00
25238;BME280;13185;50.872;5.306;2023-02-13T07:50:21;103342.88;;;-0.83;100.00
25238;BME280;13185;50.872;5.306;2023-02-13T07:52:57;103343.78;;;-0.81;100.00
25238;BME280;13185;50.872;5.306;2023-02-13T07:55:23;103349.13;;;-0.78;100.00
25238;BME280;13185;50.872;5.306;2023-02-13T07:57:49;103337.75;;;-0.75;100.00
25238;BME280;13185;50.872;5.306;2023-02-13T08:00:16;103341.28;;;-0.73;100.00
25238;BME280;13185;50.872;5.306;2023-02-13T08:02:42;103342.31;;;-0.68;100.00
25238;BME280;13185;50.872;5.306;2023-02-13T08:05:08;103341.47;;;-0.66;100.00
25238;BME280;13185;50.872;5.306;2023-02-13T08:07:34;103343.28;;;-0.63;100.00
25238;BME280;13185;50.872;5.306;2023-02-13T08:10:00;103340.75;;;-0.59;100.00
25238;BME280;13185;50.872;5.306;2023-02-13T08:12:44;103344.31;;;-0.55;100.00
25238;BME280;13185;50.872;5.306;2023-02-13T08:15:14;103346.19;;;-0.51;100.00
25238;BME280;13185;50.872;5.306;2023-02-13T08:17:40;103341.00;;;-0.46;100.00
25238;BME280;13185;50.872;5.306;2023-02-13T08:20:06;103349.91;;;-0.41;100.00
25238;BME280;13185;50.872;5.306;2023-02-13T08:22:33;103345.59;;;-0.36;100.00
25238;BME280;13185;50.872;5.306;2023-02-13T08:24:58;103349.22;;;-0.31;100.00
25238;BME280;13185;50.872;5.306;2023-02-13T08:27:24;103345.78;;;-0.27;100.00
25238;BME280;13185;50.872;5.306;2023-02-13T08:29:49;103345.81;;;-0.24;100.00
25238;BME280;13185;50.872;5.306;2023-02-13T08:32:17;103348.56;;;-0.19;100.00
25238;BME280;13185;50.872;5.306;2023-02-13T08:34:43;103351.31;;;-0.13;100.00
25238;BME280;13185;50.872;5.306;2023-02-13T08:37:08;103350.53;;;-0.09;100.00
25238;BME280;13185;50.872;5.306;2023-02-13T08:39:34;103354.13;;;-0.04;100.00
25238;BME280;13185;50.872;5.306;2023-02-13T08:41:59;103353.34;;;0.00;100.00
25238;BME280;13185;50.872;5.306;2023-02-13T08:44:25;103354.31;;;0.05;100.00
25238;BME280;13185;50.872;5.306;2023-02-13T08:46:50;103344.69;;;0.09;100.00
25238;BME280;13185;50.872;5.306;2023-02-13T08:49:16;103360.63;;;0.15;100.00
25238;BME280;13185;50.872;5.306;2023-02-13T08:51:41;103355.41;;;0.18;100.00
25238;BME280;13185;50.872;5.306;2023-02-13T08:54:07;103359.00;;;0.21;100.00
25238;BME280;13185;50.872;5.306;2023-02-13T08:56:32;103362.59;;;0.26;100.00
25238;BME280;13185;50.872;5.306;2023-02-13T08:58:59;103360.03;;;0.31;100.00
25238;BME280;13185;50.872;5.306;2023-02-13T09:01:25;103368.06;;;0.37;100.00
25238;BME280;13185;50.872;5.306;2023-02-13T09:03:50;103366.41;;;0.42;100.00
25238;BME280;13185;50.872;5.306;2023-02-13T09:06:16;103378.84;;;0.51;100.00
25238;BME280;13185;50.872;5.306;2023-02-13T09:08:41;103373.69;;;0.57;100.00
25238;BME280;13185;50.872;5.306;2023-02-13T09:11:09;103368.53;;;0.63;100.00
25238;BME280;13185;50.872;5.306;2023-02-13T09:13:35;103355.41;;;0.69;100.00
25238;BME280;13185;50.872;5.306;2023-02-13T09:16:05;103362.53;;;0.75;100.00
25238;BME280;13185;50.872;5.306;2023-02-13T09:18:32;103360.94;;;0.84;100.00
25238;BME280;13185;50.872;5.306;2023-02-13T09:21:09;103356.59;;;0.90;100.00
25238;BME280;13185;50.872;5.306;2023-02-13T09:23:37;103357.59;;;0.96;100.00
25238;BME280;13185;50.872;5.306;2023-02-13T09:26:06;103355.00;;;1.02;100.00
25238;BME280;13185;50.872;5.306;2023-02-13T09:28:33;103354.22;;;1.06;100.00
25238;BME280;13185;50.872;5.306;2023-02-13T09:30:59;103354.34;;;1.15;100.00
25238;BME280;13185;50.872;5.306;2023-02-13T09:33:25;103338.59;;;1.25;100.00
25238;BME280;13185;50.872;5.306;2023-02-13T09:35:51;103347.59;;;1.37;100.00
25238;BME280;13185;50.872;5.306;2023-02-13T09:38:17;103342.44;;;1.48;100.00
25238;BME280;13185;50.872;5.306;2023-02-13T09:40:48;103350.44;;;1.56;100.00
25238;BME280;13185;50.872;5.306;2023-02-13T09:43:30;103344.38;;;1.66;100.00
25238;BME280;13185;50.872;5.306;2023-02-13T09:46:05;103345.41;;;1.77;100.00
25238;BME280;13185;50.872;5.306;2023-02-13T09:48:35;103349.03;;;1.85;100.00
25238;BME280;13185;50.872;5.306;2023-02-13T09:51:03;103344.69;;;1.93;100.00
25238;BME280;13185;50.872;5.306;2023-02-13T09:53:29;103351.84;;;2.02;100.00
25238;BME280;13185;50.872;5.306;2023-02-13T10:01:39;103345.09;;;2.30;100.00
25238;BME280;13185;50.872;5.306;2023-02-13T10:04:14;103346.94;;;2.40;100.00
25238;BME280;13185;50.872;5.306;2023-02-13T10:06:45;103345.22;;;2.50;100.00
25238;BME280;13185;50.872;5.306;2023-02-13T10:17:58;103340.22;;;2.89;100.00
25238;BME280;13185;50.872;5.306;2023-02-13T10:20:26;103340.28;;;2.97;100.00
25238;BME280;13185;50.872;5.306;2023-02-13T10:22:59;103338.56;;;3.05;100.00
25238;BME280;13185;50.872;5.306;2023-02-13T10:25:30;103330.66;;;3.14;100.00
25238;BME280;13185;50.872;5.306;2023-02-13T10:28:05;103339.56;;;3.24;100.00
25238;BME280;13185;50.872;5.306;2023-02-13T10:30:55;103334.31;;;3.35;100.00
25238;BME280;13185;50.872;5.306;2023-02-13T10:33:26;103336.97;;;3.42;100.00
25238;BME280;13185;50.872;5.306;2023-02-13T10:36:02;103340.56;;;3.52;100.00
25238;BME280;13185;50.872;5.306;2023-02-13T10:38:32;103336.22;;;3.68;100.00
25238;BME280;13185;50.872;5.306;2023-02-13T10:41:23;103334.50;;;3.88;100.00
25238;BME280;13185;50.872;5.306;2023-02-13T10:54:57;103335.44;;;4.36;100.00
25238;BME280;13185;50.872;5.306;2023-02-13T10:57:48;103334.56;;;4.54;100.00
25238;BME280;13185;50.872;5.306;2023-02-13T11:03:25;103326.56;;;4.75;100.00
25238;BME280;13185;50.872;5.306;2023-02-13T11:05:52;103330.97;;;4.85;100.00
25238;BME280;13185;50.872;5.306;2023-02-13T11:10:57;103319.41;;;5.00;100.00
25238;BME280;13185;50.872;5.306;2023-02-13T11:13:25;103316.75;;;5.06;100.00
25238;BME280;13185;50.872;5.306;2023-02-13T11:15:58;103317.63;;;5.14;100.00
25238;BME280;13185;50.872;5.306;2023-02-13T11:18:26;103306.91;;;5.27;100.00
25238;BME280;13185;50.872;5.306;2023-02-13T11:26:13;103289.03;;;5.64;100.00
25238;BME280;13185;50.872;5.306;2023-02-13T11:28:53;103287.13;;;5.79;100.00
25238;BME280;13185;50.872;5.306;2023-02-13T11:33:48;103277.25;;;6.01;100.00
25238;BME280;13185;50.872;5.306;2023-02-13T11:36:40;103274.53;;;6.09;100.00
25238;BME280;13185;50.872;5.306;2023-02-13T11:39:17;103279.78;;;6.20;100.00
25238;BME280;13185;50.872;5.306;2023-02-13T11:41:44;103267.25;;;6.29;100.00
25238;BME280;13185;50.872;5.306;2023-02-13T11:44:28;103276.06;;;6.39;100.00
25238;BME280;13185;50.872;5.306;2023-02-13T11:46:58;103268.00;;;6.47;100.00
25238;BME280;13185;50.872;5.306;2023-02-13T11:49:32;103263.44;;;6.56;100.00
25238;BME280;13185;50.872;5.306;2023-02-13T11:52:01;103269.56;;;6.68;100.00
25238;BME280;13185;50.872;5.306;2023-02-13T11:54:40;103265.91;;;6.78;100.00
25238;BME280;13185;50.872;5.306;2023-02-13T11:59:52;103260.28;;;7.04;100.00
25238;BME280;13185;50.872;5.306;2023-02-13T12:02:20;103262.78;;;7.16;100.00
25238;BME280;13185;50.872;5.306;2023-02-13T12:04:49;103253.69;;;7.32;100.00
25238;BME280;13185;50.872;5.306;2023-02-13T12:09:51;103251.72;;;7.45;100.00
25238;BME280;13185;50.872;5.306;2023-02-13T12:12:41;103248.97;;;7.52;100.00
25238;BME280;13185;50.872;5.306;2023-02-13T12:15:17;103239.94;;;7.61;100.00
25238;BME280;13185;50.872;5.306;2023-02-13T12:17:44;103237.09;;;7.70;100.00
25238;BME280;13185;50.872;5.306;2023-02-13T12:20:16;103239.66;;;7.78;100.00
25238;BME280;13185;50.872;5.306;2023-02-13T12:25:36;103235.00;;;7.94;100.00
25238;BME280;13185;50.872;5.306;2023-02-13T12:28:20;103231.28;;;8.02;100.00
25238;BME280;13185;50.872;5.306;2023-02-13T12:36:18;103226.88;;;8.51;100.00
25238;BME280;13185;50.872;5.306;2023-02-13T12:39:00;103222.97;;;8.70;100.00
25238;BME280;13185;50.872;5.306;2023-02-13T12:44:24;103211.91;;;8.88;100.00
25238;BME280;13185;50.872;5.306;2023-02-13T12:47:05;103207.19;;;9.00;100.00
25238;BME280;13185;50.872;5.306;2023-02-13T12:52:38;103204.00;;;9.24;97.63
25238;BME280;13185;50.872;5.306;2023-02-13T13:06:32;103193.13;;;9.69;91.57
25238;BME280;13185;50.872;5.306;2023-02-13T13:12:28;103194.56;;;9.83;91.08
25238;BME280;13185;50.872;5.306;2023-02-13T13:17:58;103190.59;;;9.98;89.44
25238;BME280;13185;50.872;5.306;2023-02-13T13:23:23;103193.63;;;10.22;84.61
25238;BME280;13185;50.872;5.306;2023-02-13T13:28:35;103188.88;;;10.31;85.28
25238;BME280;13185;50.872;5.306;2023-02-13T13:31:02;103186.97;;;10.36;84.12
25238;BME280;13185;50.872;5.306;2023-02-13T13:33:29;103181.56;;;10.38;84.83
25238;BME280;13185;50.872;5.306;2023-02-13T13:36:03;103177.91;;;10.40;85.10
25238;BME280;13185;50.872;5.306;2023-02-13T13:38:41;103177.72;;;10.48;86.04
25238;BME280;13185;50.872;5.306;2023-02-13T13:52:26;103166.28;;;11.02;85.38
25238;BME280;13185;50.872;5.306;2023-02-13T13:54:53;103157.97;;;11.11;85.90
25238;BME280;13185;50.872;5.306;2023-02-13T14:00:20;103154.81;;;11.26;82.59
25238;BME280;13185;50.872;5.306;2023-02-13T14:02:48;103146.56;;;11.33;81.07
25238;BME280;13185;50.872;5.306;2023-02-13T14:07:45;103147.91;;;11.46;81.22
25238;BME280;13185;50.872;5.306;2023-02-13T14:12:58;103145.63;;;11.62;80.84
25238;BME280;13185;50.872;5.306;2023-02-13T14:18:06;103147.75;;;11.80;80.68
25238;BME280;13185;50.872;5.306;2023-02-13T14:31:43;103129.06;;;12.02;75.77
25238;BME280;13185;50.872;5.306;2023-02-13T14:34:26;103134.31;;;12.05;74.85
25238;BME280;13185;50.872;5.306;2023-02-13T14:39:36;103128.28;;;12.23;74.24
25238;BME280;13185;50.872;5.306;2023-02-13T14:42:04;103130.00;;;12.26;74.44
25238;BME280;13185;50.872;5.306;2023-02-13T14:44:50;103119.09;;;12.29;73.81
25238;BME280;13185;50.872;5.306;2023-02-13T14:47:39;103117.97;;;12.36;73.86
25238;BME280;13185;50.872;5.306;2023-02-13T14:50:15;103112.94;;;12.50;75.01
25238;BME280;13185;50.872;5.306;2023-02-13T14:52:43;103115.22;;;12.61;75.35
25238;BME280;13185;50.872;5.306;2023-02-13T14:57:52;103110.22;;;12.75;74.90
25238;BME280;13185;50.872;5.306;2023-02-13T15:00:55;103109.16;;;12.79;73.15
25238;BME280;13185;50.872;5.306;2023-02-13T15:03:35;103109.00;;;12.84;72.81
25238;BME280;13185;50.872;5.306;2023-02-13T15:06:06;103109.56;;;12.92;73.16
25238;BME280;13185;50.872;5.306;2023-02-13T15:08:41;103103.94;;;12.98;72.73
25238;BME280;13185;50.872;5.306;2023-02-13T15:11:10;103105.53;;;13.04;71.94
25238;BME280;13185;50.872;5.306;2023-02-13T15:17:25;103094.47;;;13.10;70.54
25238;BME280;13185;50.872;5.306;2023-02-13T15:20:00;103095.06;;;13.18;71.43
25238;BME280;13185;50.872;5.306;2023-02-13T15:22:32;103090.28;;;13.26;71.03
25238;BME280;13185;50.872;5.306;2023-02-13T15:24:58;103083.81;;;13.30;69.61
25238;BME280;13185;50.872;5.306;2023-02-13T15:27:26;103079.94;;;13.37;71.11
25238;BME280;13185;50.872;5.306;2023-02-13T15:30:17;103085.94;;;13.44;70.67
25238;BME280;13185;50.872;5.306;2023-02-13T15:32:42;103079.56;;;13.46;70.44
25238;BME280;13185;50.872;5.306;2023-02-13T15:35:32;103085.91;;;13.45;69.74
25238;BME280;13185;50.872;5.306;2023-02-13T15:37:59;103088.44;;;13.48;69.18
25238;BME280;13185;50.872;5.306;2023-02-13T15:40:41;103085.91;;;13.45;68.95
25238;BME280;13185;50.872;5.306;2023-02-13T15:43:26;103086.84;;;13.44;68.92
25238;BME280;13185;50.872;5.306;2023-02-13T15:45:55;103086.00;;;13.42;69.37
25238;BME280;13185;50.872;5.306;2023-02-13T15:48:23;103086.94;;;13.41;69.01
25238;BME280;13185;50.872;5.306;2023-02-13T15:50:49;103086.38;;;13.33;69.72